sensor_id;sensor_type;location;lat;lon;timestamp;P1;durP1;ratioP1;P2;durP2;ratioP2
77432;SDS011;66752;48.576;8.876;2023-05-29T00:01:49;8.25;;;4.22;;
77432;SDS011;66752;48.576;8.876;2023-05-29T00:04:15;9.63;;;4.60;;
77432;SDS011;66752;48.576;8.876;2023-05-29T00:06:41;10.05;;;4.03;;
77432;SDS011;66752;48.576;8.876;2023-05-29T00:09:07;9.63;;;3.50;;
77432;SDS011;66752;48.576;8.876;2023-05-29T00:11:33;13.00;;;4.97;;
77432;SDS011;66752;48.576;8.876;2023-05-29T00:13:59;9.82;;;4.80;;
77432;SDS011;66752;48.576;8.876;2023-05-29T00:16:25;11.25;;;5.30;;
77432;SDS011;66752;48.576;8.876;2023-05-29T00:18:51;8.88;;;4.30;;
77432;SDS011;66752;48.576;8.876;2023-05-29T00:21:18;8.85;;;3.88;;
77432;SDS011;66752;48.576;8.876;2023-05-29T00:23:44;7.65;;;4.13;;
77432;SDS011;66752;48.576;8.876;2023-05-29T00:26:10;11.40;;;5.50;;
77432;SDS011;66752;48.576;8.876;2023-05-29T00:28:37;8.63;;;4.68;;
77432;SDS011;66752;48.576;8.876;2023-05-29T00:31:03;9.30;;;4.65;;
77432;SDS011;66752;48.576;8.876;2023-05-29T00:33:29;12.60;;;4.13;;
77432;SDS011;66752;48.576;8.876;2023-05-29T00:35:55;11.07;;;4.97;;
77432;SDS011;66752;48.576;8.876;2023-05-29T00:38:21;13.95;;;5.13;;
77432;SDS011;66752;48.576;8.876;2023-05-29T00:40:47;10.45;;;4.45;;
77432;SDS011;66752;48.576;8.876;2023-05-29T00:43:13;7.95;;;3.90;;
77432;SDS011;66752;48.576;8.876;2023-05-29T00:45:39;9.82;;;4.50;;
77432;SDS011;66752;48.576;8.876;2023-05-29T00:48:05;13.23;;;4.25;;
77432;SDS011;66752;48.576;8.876;2023-05-29T00:50:33;9.27;;;3.95;;
77432;SDS011;66752;48.576;8.876;2023-05-29T00:53:02;9.82;;;4.45;;
77432;SDS011;66752;48.576;8.876;2023-05-29T00:55:29;8.88;;;4.63;;
77432;SDS011;66752;48.576;8.876;2023-05-29T00:57:56;12.23;;;5.00;;
77432;SDS011;66752;48.576;8.876;2023-05-29T01:00:22;9.73;;;4.18;;
77432;SDS011;66752;48.576;8.876;2023-05-29T01:02:48;8.98;;;4.07;;
77432;SDS011;66752;48.576;8.876;2023-05-29T01:05:14;9.40;;;4.40;;
77432;SDS011;66752;48.576;8.876;2023-05-29T01:07:40;9.00;;;4.32;;
77432;SDS011;66752;48.576;8.876;2023-05-29T01:10:07;10.07;;;4.25;;
77432;SDS011;66752;48.576;8.876;2023-05-29T01:12:49;8.90;;;4.18;;
77432;SDS011;66752;48.576;8.876;2023-05-29T01:20:42;8.52;;;4.00;;
77432;SDS011;66752;48.576;8.876;2023-05-29T01:28:44;7.88;;;4.30;;
77432;SDS011;66752;48.576;8.876;2023-05-29T01:31:12;8.43;;;4.90;;
77432;SDS011;66752;48.576;8.876;2023-05-29T01:33:39;10.13;;;4.57;;
77432;SDS011;66752;48.576;8.876;2023-05-29T01:36:06;9.38;;;4.35;;
77432;SDS011;66752;48.576;8.876;2023-05-29T01:38:33;11.23;;;4.82;;
77432;SDS011;66752;48.576;8.876;2023-05-29T01:40:58;9.68;;;5.15;;
77432;SDS011;66752;48.576;8.876;2023-05-29T01:43:25;9.13;;;5.30;;
77432;SDS011;66752;48.576;8.876;2023-05-29T01:45:51;8.43;;;4.20;;
77432;SDS011;66752;48.576;8.876;2023-05-29T01:48:17;11.27;;;4.30;;
77432;SDS011;66752;48.576;8.876;2023-05-29T01:50:43;7.35;;;4.03;;
77432;SDS011;66752;48.576;8.876;2023-05-29T01:53:09;11.15;;;5.07;;
77432;SDS011;66752;48.576;8.876;2023-05-29T01:55:35;10.60;;;5.05;;
77432;SDS011;66752;48.576;8.876;2023-05-29T01:58:01;10.63;;;4.35;;
77432;SDS011;66752;48.576;8.876;2023-05-29T02:00:27;11.70;;;4.35;;
77432;SDS011;66752;48.576;8.876;2023-05-29T02:02:55;9.82;;;4.43;;
77432;SDS011;66752;48.576;8.876;2023-05-29T02:05:21;9.65;;;3.85;;
77432;SDS011;66752;48.576;8.876;2023-05-29T02:07:47;11.52;;;4.53;;
77432;SDS011;66752;48.576;8.876;2023-05-29T02:10:13;11.98;;;4.00;;
77432;SDS011;66752;48.576;8.876;2023-05-29T02:12:38;10.65;;;4.85;;
77432;SDS011;66752;48.576;8.876;2023-05-29T02:15:05;7.93;;;4.00;;
77432;SDS011;66752;48.576;8.876;2023-05-29T02:17:31;11.25;;;4.47;;
77432;SDS011;66752;48.576;8.876;2023-05-29T02:19:58;9.35;;;4.10;;
77432;SDS011;66752;48.576;8.876;2023-05-29T02:22:24;10.15;;;4.18;;
77432;SDS011;66752;48.576;8.876;2023-05-29T02:24:50;8.68;;;4.50;;
77432;SDS011;66752;48.576;8.876;2023-05-29T02:27:16;10.32;;;4.63;;
77432;SDS011;66752;48.576;8.876;2023-05-29T02:29:42;10.25;;;5.25;;
77432;SDS011;66752;48.576;8.876;2023-05-29T02:34:34;10.45;;;4.60;;
77432;SDS011;66752;48.576;8.876;2023-05-29T02:37:01;9.02;;;4.65;;
77432;SDS011;66752;48.576;8.876;2023-05-29T02:41:53;8.18;;;4.15;;
77432;SDS011;66752;48.576;8.876;2023-05-29T02:44:20;8.82;;;4.25;;
77432;SDS011;66752;48.576;8.876;2023-05-29T02:46:46;9.32;;;4.15;;
77432;SDS011;66752;48.576;8.876;2023-05-29T02:49:12;11.40;;;4.47;;
77432;SDS011;66752;48.576;8.876;2023-05-29T02:51:38;11.00;;;4.43;;
77432;SDS011;66752;48.576;8.876;2023-05-29T02:54:04;9.32;;;4.38;;
77432;SDS011;66752;48.576;8.876;2023-05-29T02:56:30;10.23;;;4.07;;
77432;SDS011;66752;48.576;8.876;2023-05-29T02:58:56;9.45;;;4.63;;
77432;SDS011;66752;48.576;8.876;2023-05-29T03:01:22;7.78;;;3.80;;
77432;SDS011;66752;48.576;8.876;2023-05-29T03:03:48;12.85;;;5.38;;
77432;SDS011;66752;48.576;8.876;2023-05-29T03:06:13;8.35;;;4.22;;
77432;SDS011;66752;48.576;8.876;2023-05-29T03:08:41;9.30;;;4.78;;
77432;SDS011;66752;48.576;8.876;2023-05-29T03:11:10;10.57;;;4.50;;
77432;SDS011;66752;48.576;8.876;2023-05-29T03:13:36;14.02;;;5.25;;
77432;SDS011;66752;48.576;8.876;2023-05-29T03:16:02;8.18;;;3.97;;
77432;SDS011;66752;48.576;8.876;2023-05-29T03:18:28;8.10;;;4.07;;
77432;SDS011;66752;48.576;8.876;2023-05-29T03:20:54;9.63;;;4.57;;
77432;SDS011;66752;48.576;8.876;2023-05-29T03:23:20;13.07;;;5.50;;
77432;SDS011;66752;48.576;8.876;2023-05-29T03:25:46;9.68;;;4.25;;
77432;SDS011;66752;48.576;8.876;2023-05-29T03:28:12;8.23;;;4.30;;
77432;SDS011;66752;48.576;8.876;2023-05-29T03:30:38;9.13;;;4.60;;
77432;SDS011;66752;48.576;8.876;2023-05-29T03:33:04;11.60;;;4.72;;
77432;SDS011;66752;48.576;8.876;2023-05-29T03:35:30;10.07;;;4.47;;
77432;SDS011;66752;48.576;8.876;2023-05-29T03:37:56;9.25;;;4.00;;
77432;SDS011;66752;48.576;8.876;2023-05-29T03:40:22;7.78;;;4.43;;
77432;SDS011;66752;48.576;8.876;2023-05-29T03:42:48;8.90;;;3.78;;
77432;SDS011;66752;48.576;8.876;2023-05-29T03:45:14;9.00;;;3.80;;
77432;SDS011;66752;48.576;8.876;2023-05-29T03:47:40;7.97;;;4.47;;
77432;SDS011;66752;48.576;8.876;2023-05-29T03:50:06;9.50;;;4.45;;
77432;SDS011;66752;48.576;8.876;2023-05-29T03:52:33;9.93;;;4.03;;
77432;SDS011;66752;48.576;8.876;2023-05-29T03:54:59;8.65;;;4.45;;
77432;SDS011;66752;48.576;8.876;2023-05-29T03:57:25;8.93;;;4.30;;
77432;SDS011;66752;48.576;8.876;2023-05-29T03:59:51;9.57;;;4.00;;
77432;SDS011;66752;48.576;8.876;2023-05-29T04:02:17;10.70;;;4.75;;
77432;SDS011;66752;48.576;8.876;2023-05-29T04:04:43;8.57;;;4.82;;
77432;SDS011;66752;48.576;8.876;2023-05-29T04:07:09;10.30;;;5.45;;
77432;SDS011;66752;48.576;8.876;2023-05-29T04:09:35;10.52;;;5.75;;
77432;SDS011;66752;48.576;8.876;2023-05-29T04:12:02;14.10;;;5.35;;
77432;SDS011;66752;48.576;8.876;2023-05-29T04:14:30;11.10;;;6.43;;
77432;SDS011;66752;48.576;8.876;2023-05-29T04:16:56;10.73;;;5.82;;
77432;SDS011;66752;48.576;8.876;2023-05-29T04:19:22;10.60;;;5.43;;
77432;SDS011;66752;48.576;8.876;2023-05-29T04:21:48;11.05;;;5.28;;
77432;SDS011;66752;48.576;8.876;2023-05-29T04:24:14;12.60;;;5.68;;
77432;SDS011;66752;48.576;8.876;2023-05-29T04:26:40;12.70;;;5.43;;
77432;SDS011;66752;48.576;8.876;2023-05-29T04:29:07;12.98;;;5.78;;
77432;SDS011;66752;48.576;8.876;2023-05-29T04:31:33;13.40;;;6.03;;
77432;SDS011;66752;48.576;8.876;2023-05-29T04:34:01;12.38;;;5.90;;
77432;SDS011;66752;48.576;8.876;2023-05-29T04:36:29;16.83;;;6.30;;
77432;SDS011;66752;48.576;8.876;2023-05-29T04:38:57;11.13;;;5.90;;
77432;SDS011;66752;48.576;8.876;2023-05-29T04:41:23;16.15;;;7.10;;
77432;SDS011;66752;48.576;8.876;2023-05-29T04:43:54;14.52;;;6.00;;
77432;SDS011;66752;48.576;8.876;2023-05-29T04:46:21;12.48;;;5.43;;
77432;SDS011;66752;48.576;8.876;2023-05-29T04:48:47;11.23;;;4.95;;
77432;SDS011;66752;48.576;8.876;2023-05-29T04:51:18;10.52;;;5.05;;
77432;SDS011;66752;48.576;8.876;2023-05-29T04:53:44;8.40;;;4.80;;
77432;SDS011;66752;48.576;8.876;2023-05-29T04:58:37;8.02;;;4.00;;
77432;SDS011;66752;48.576;8.876;2023-05-29T05:01:03;10.85;;;4.78;;
77432;SDS011;66752;48.576;8.876;2023-05-29T05:03:29;11.90;;;5.05;;
77432;SDS011;66752;48.576;8.876;2023-05-29T05:05:56;10.15;;;4.78;;
77432;SDS011;66752;48.576;8.876;2023-05-29T05:08:22;9.20;;;4.57;;
77432;SDS011;66752;48.576;8.876;2023-05-29T05:10:48;12.10;;;5.65;;
77432;SDS011;66752;48.576;8.876;2023-05-29T05:13:14;10.90;;;5.10;;
77432;SDS011;66752;48.576;8.876;2023-05-29T05:15:40;7.88;;;4.72;;
77432;SDS011;66752;48.576;8.876;2023-05-29T05:18:06;11.52;;;5.15;;
77432;SDS011;66752;48.576;8.876;2023-05-29T05:20:32;9.55;;;4.68;;
77432;SDS011;66752;48.576;8.876;2023-05-29T05:22:58;10.55;;;4.47;;
77432;SDS011;66752;48.576;8.876;2023-05-29T05:25:25;9.30;;;5.10;;
77432;SDS011;66752;48.576;8.876;2023-05-29T05:27:50;9.70;;;4.38;;
77432;SDS011;66752;48.576;8.876;2023-05-29T05:30:16;9.85;;;4.30;;
77432;SDS011;66752;48.576;8.876;2023-05-29T05:32:42;9.95;;;4.70;;
77432;SDS011;66752;48.576;8.876;2023-05-29T05:35:08;9.60;;;4.63;;
77432;SDS011;66752;48.576;8.876;2023-05-29T05:37:36;9.73;;;4.63;;
77432;SDS011;66752;48.576;8.876;2023-05-29T05:40:02;10.30;;;5.63;;
77432;SDS011;66752;48.576;8.876;2023-05-29T05:44:54;9.93;;;4.43;;
77432;SDS011;66752;48.576;8.876;2023-05-29T05:47:20;12.35;;;4.65;;
77432;SDS011;66752;48.576;8.876;2023-05-29T05:49:46;10.07;;;4.35;;
77432;SDS011;66752;48.576;8.876;2023-05-29T05:52:14;10.95;;;4.85;;
77432;SDS011;66752;48.576;8.876;2023-05-29T05:54:41;9.48;;;4.45;;
77432;SDS011;66752;48.576;8.876;2023-05-29T05:57:07;11.40;;;4.07;;
77432;SDS011;66752;48.576;8.876;2023-05-29T05:59:33;9.85;;;4.03;;
77432;SDS011;66752;48.576;8.876;2023-05-29T06:01:59;12.00;;;4.60;;
77432;SDS011;66752;48.576;8.876;2023-05-29T06:04:26;9.95;;;4.22;;
77432;SDS011;66752;48.576;8.876;2023-05-29T06:06:52;10.70;;;4.38;;
77432;SDS011;66752;48.576;8.876;2023-05-29T06:09:18;10.77;;;3.95;;
77432;SDS011;66752;48.576;8.876;2023-05-29T06:11:44;7.35;;;3.72;;
77432;SDS011;66752;48.576;8.876;2023-05-29T06:14:10;8.98;;;4.30;;
77432;SDS011;66752;48.576;8.876;2023-05-29T06:16:36;9.40;;;4.40;;
77432;SDS011;66752;48.576;8.876;2023-05-29T06:19:02;8.93;;;4.72;;
77432;SDS011;66752;48.576;8.876;2023-05-29T06:21:29;14.70;;;5.40;;
77432;SDS011;66752;48.576;8.876;2023-05-29T06:23:55;8.20;;;3.88;;
77432;SDS011;66752;48.576;8.876;2023-05-29T06:26:21;8.05;;;3.70;;
77432;SDS011;66752;48.576;8.876;2023-05-29T06:28:47;10.40;;;3.70;;
77432;SDS011;66752;48.576;8.876;2023-05-29T06:31:13;8.82;;;3.60;;
77432;SDS011;66752;48.576;8.876;2023-05-29T06:33:39;8.05;;;3.95;;
77432;SDS011;66752;48.576;8.876;2023-05-29T06:36:05;8.95;;;4.07;;
77432;SDS011;66752;48.576;8.876;2023-05-29T06:40:57;7.28;;;3.55;;
77432;SDS011;66752;48.576;8.876;2023-05-29T06:43:23;10.90;;;3.65;;
77432;SDS011;66752;48.576;8.876;2023-05-29T06:45:49;7.97;;;3.53;;
77432;SDS011;66752;48.576;8.876;2023-05-29T06:48:15;7.40;;;3.25;;
77432;SDS011;66752;48.576;8.876;2023-05-29T06:50:41;7.93;;;3.65;;
77432;SDS011;66752;48.576;8.876;2023-05-29T06:53:07;8.90;;;3.67;;
77432;SDS011;66752;48.576;8.876;2023-05-29T06:55:33;7.43;;;3.78;;
77432;SDS011;66752;48.576;8.876;2023-05-29T06:57:59;6.63;;;4.00;;
77432;SDS011;66752;48.576;8.876;2023-05-29T07:00:25;8.63;;;3.70;;
77432;SDS011;66752;48.576;8.876;2023-05-29T07:02:52;7.97;;;3.53;;
77432;SDS011;66752;48.576;8.876;2023-05-29T07:05:18;10.23;;;4.25;;
77432;SDS011;66752;48.576;8.876;2023-05-29T07:07:44;8.40;;;3.63;;
77432;SDS011;66752;48.576;8.876;2023-05-29T07:10:10;7.72;;;3.63;;
77432;SDS011;66752;48.576;8.876;2023-05-29T07:12:36;9.27;;;3.72;;
77432;SDS011;66752;48.576;8.876;2023-05-29T07:15:02;7.70;;;3.67;;
77432;SDS011;66752;48.576;8.876;2023-05-29T07:17:28;8.98;;;4.13;;
77432;SDS011;66752;48.576;8.876;2023-05-29T07:19:54;7.55;;;3.80;;
77432;SDS011;66752;48.576;8.876;2023-05-29T07:24:46;11.88;;;4.07;;
77432;SDS011;66752;48.576;8.876;2023-05-29T07:27:12;7.05;;;3.53;;
77432;SDS011;66752;48.576;8.876;2023-05-29T07:29:38;9.35;;;3.70;;
77432;SDS011;66752;48.576;8.876;2023-05-29T07:32:04;8.77;;;3.90;;
77432;SDS011;66752;48.576;8.876;2023-05-29T07:34:30;8.50;;;3.92;;
77432;SDS011;66752;48.576;8.876;2023-05-29T07:39:25;7.93;;;4.07;;
77432;SDS011;66752;48.576;8.876;2023-05-29T07:41:51;9.15;;;4.03;;
77432;SDS011;66752;48.576;8.876;2023-05-29T07:44:17;8.48;;;3.83;;
77432;SDS011;66752;48.576;8.876;2023-05-29T07:46:43;7.25;;;3.72;;
77432;SDS011;66752;48.576;8.876;2023-05-29T07:49:09;11.10;;;4.43;;
77432;SDS011;66752;48.576;8.876;2023-05-29T07:51:35;10.52;;;3.75;;
77432;SDS011;66752;48.576;8.876;2023-05-29T07:54:01;6.85;;;4.05;;
77432;SDS011;66752;48.576;8.876;2023-05-29T07:56:27;7.95;;;4.07;;
77432;SDS011;66752;48.576;8.876;2023-05-29T08:01:20;10.30;;;4.15;;
77432;SDS011;66752;48.576;8.876;2023-05-29T08:06:12;9.68;;;3.92;;
77432;SDS011;66752;48.576;8.876;2023-05-29T08:08:38;8.82;;;3.95;;
77432;SDS011;66752;48.576;8.876;2023-05-29T08:11:04;8.88;;;3.70;;
77432;SDS011;66752;48.576;8.876;2023-05-29T08:13:30;8.98;;;4.28;;
77432;SDS011;66752;48.576;8.876;2023-05-29T08:15:56;8.85;;;4.13;;
77432;SDS011;66752;48.576;8.876;2023-05-29T08:18:24;7.45;;;3.40;;
77432;SDS011;66752;48.576;8.876;2023-05-29T08:20:51;8.45;;;3.80;;
77432;SDS011;66752;48.576;8.876;2023-05-29T08:23:17;7.57;;;3.55;;
77432;SDS011;66752;48.576;8.876;2023-05-29T08:25:43;8.05;;;4.20;;
77432;SDS011;66752;48.576;8.876;2023-05-29T08:30:35;8.70;;;3.72;;
77432;SDS011;66752;48.576;8.876;2023-05-29T08:33:04;7.95;;;3.90;;
77432;SDS011;66752;48.576;8.876;2023-05-29T08:35:30;9.38;;;3.85;;
77432;SDS011;66752;48.576;8.876;2023-05-29T08:37:56;7.10;;;3.83;;
77432;SDS011;66752;48.576;8.876;2023-05-29T08:40:22;8.23;;;4.00;;
77432;SDS011;66752;48.576;8.876;2023-05-29T08:43:31;7.57;;;3.83;;
77432;SDS011;66752;48.576;8.876;2023-05-29T08:45:39;9.85;;;4.22;;
77432;SDS011;66752;48.576;8.876;2023-05-29T08:48:07;8.88;;;3.95;;
77432;SDS011;66752;48.576;8.876;2023-05-29T08:50:35;7.78;;;3.70;;
77432;SDS011;66752;48.576;8.876;2023-05-29T08:53:01;8.48;;;4.15;;
77432;SDS011;66752;48.576;8.876;2023-05-29T08:55:27;8.88;;;4.20;;
77432;SDS011;66752;48.576;8.876;2023-05-29T09:00:19;8.45;;;3.90;;
77432;SDS011;66752;48.576;8.876;2023-05-29T09:02:47;7.47;;;3.65;;
77432;SDS011;66752;48.576;8.876;2023-05-29T09:05:13;8.48;;;4.25;;
77432;SDS011;66752;48.576;8.876;2023-05-29T09:07:40;8.23;;;4.50;;
77432;SDS011;66752;48.576;8.876;2023-05-29T09:12:32;7.95;;;3.90;;
77432;SDS011;66752;48.576;8.876;2023-05-29T09:14:58;9.52;;;4.88;;
77432;SDS011;66752;48.576;8.876;2023-05-29T09:17:24;9.35;;;4.10;;
77432;SDS011;66752;48.576;8.876;2023-05-29T09:19:55;8.70;;;4.07;;
77432;SDS011;66752;48.576;8.876;2023-05-29T09:22:21;8.65;;;3.92;;
77432;SDS011;66752;48.576;8.876;2023-05-29T09:24:47;8.57;;;3.42;;
77432;SDS011;66752;48.576;8.876;2023-05-29T09:27:15;7.93;;;4.07;;
77432;SDS011;66752;48.576;8.876;2023-05-29T09:29:42;9.20;;;3.80;;
77432;SDS011;66752;48.576;8.876;2023-05-29T09:34:35;7.97;;;3.85;;
77432;SDS011;66752;48.576;8.876;2023-05-29T09:39:34;7.15;;;3.70;;
77432;SDS011;66752;48.576;8.876;2023-05-29T09:42:00;7.40;;;3.42;;
77432;SDS011;66752;48.576;8.876;2023-05-29T09:44:26;6.97;;;3.55;;
77432;SDS011;66752;48.576;8.876;2023-05-29T09:46:56;9.07;;;3.70;;
77432;SDS011;66752;48.576;8.876;2023-05-29T09:49:23;10.48;;;4.50;;
77432;SDS011;66752;48.576;8.876;2023-05-29T09:51:49;11.75;;;5.03;;
77432;SDS011;66752;48.576;8.876;2023-05-29T09:54:18;9.55;;;4.03;;
77432;SDS011;66752;48.576;8.876;2023-05-29T09:59:11;9.60;;;4.22;;
77432;SDS011;66752;48.576;8.876;2023-05-29T10:01:43;10.90;;;4.97;;
77432;SDS011;66752;48.576;8.876;2023-05-29T10:04:10;7.28;;;3.42;;
77432;SDS011;66752;48.576;8.876;2023-05-29T10:06:36;7.38;;;3.63;;
77432;SDS011;66752;48.576;8.876;2023-05-29T10:09:05;10.13;;;4.20;;
77432;SDS011;66752;48.576;8.876;2023-05-29T10:11:32;6.43;;;3.60;;
77432;SDS011;66752;48.576;8.876;2023-05-29T10:13:59;7.78;;;4.00;;
77432;SDS011;66752;48.576;8.876;2023-05-29T10:16:27;7.63;;;3.97;;
77432;SDS011;66752;48.576;8.876;2023-05-29T10:18:54;9.45;;;4.28;;
77432;SDS011;66752;48.576;8.876;2023-05-29T10:21:21;9.32;;;4.45;;
77432;SDS011;66752;48.576;8.876;2023-05-29T10:23:47;8.77;;;3.65;;
77432;SDS011;66752;48.576;8.876;2023-05-29T10:26:21;9.25;;;4.05;;
77432;SDS011;66752;48.576;8.876;2023-05-29T10:29:34;9.18;;;4.03;;
77432;SDS011;66752;48.576;8.876;2023-05-29T10:32:20;12.55;;;5.03;;
77432;SDS011;66752;48.576;8.876;2023-05-29T10:36:54;9.80;;;4.88;;
77432;SDS011;66752;48.576;8.876;2023-05-29T10:39:21;7.95;;;3.70;;
77432;SDS011;66752;48.576;8.876;2023-05-29T10:41:47;7.38;;;3.95;;
77432;SDS011;66752;48.576;8.876;2023-05-29T10:49:23;10.07;;;4.38;;
77432;SDS011;66752;48.576;8.876;2023-05-29T10:51:51;7.63;;;3.97;;
77432;SDS011;66752;48.576;8.876;2023-05-29T10:54:22;8.63;;;3.80;;
77432;SDS011;66752;48.576;8.876;2023-05-29T10:56:52;7.40;;;4.13;;
77432;SDS011;66752;48.576;8.876;2023-05-29T10:59:18;10.27;;;4.80;;
77432;SDS011;66752;48.576;8.876;2023-05-29T11:06:45;9.02;;;3.72;;
77432;SDS011;66752;48.576;8.876;2023-05-29T11:09:28;7.07;;;4.15;;
77432;SDS011;66752;48.576;8.876;2023-05-29T11:12:10;7.97;;;4.22;;
77432;SDS011;66752;48.576;8.876;2023-05-29T11:14:55;6.28;;;3.50;;
77432;SDS011;66752;48.576;8.876;2023-05-29T11:17:55;8.80;;;3.90;;
77432;SDS011;66752;48.576;8.876;2023-05-29T11:20:20;7.55;;;3.80;;
77432;SDS011;66752;48.576;8.876;2023-05-29T11:22:56;7.57;;;3.72;;
77432;SDS011;66752;48.576;8.876;2023-05-29T11:25:26;7.70;;;4.00;;
77432;SDS011;66752;48.576;8.876;2023-05-29T11:27:53;7.18;;;3.75;;
77432;SDS011;66752;48.576;8.876;2023-05-29T11:30:19;8.50;;;4.03;;
77432;SDS011;66752;48.576;8.876;2023-05-29T11:32:45;6.93;;;3.70;;
77432;SDS011;66752;48.576;8.876;2023-05-29T11:35:12;9.13;;;3.97;;
77432;SDS011;66752;48.576;8.876;2023-05-29T11:37:39;8.23;;;3.28;;
77432;SDS011;66752;48.576;8.876;2023-05-29T11:40:07;6.70;;;3.63;;
77432;SDS011;66752;48.576;8.876;2023-05-29T11:42:34;7.45;;;4.07;;
77432;SDS011;66752;48.576;8.876;2023-05-29T11:45:13;9.82;;;3.75;;
77432;SDS011;66752;48.576;8.876;2023-05-29T11:47:58;9.15;;;3.65;;
77432;SDS011;66752;48.576;8.876;2023-05-29T11:50:28;7.75;;;3.78;;
77432;SDS011;66752;48.576;8.876;2023-05-29T11:52:55;5.53;;;2.75;;
77432;SDS011;66752;48.576;8.876;2023-05-29T11:55:22;8.55;;;3.42;;
77432;SDS011;66752;48.576;8.876;2023-05-29T11:57:48;7.28;;;3.78;;
77432;SDS011;66752;48.576;8.876;2023-05-29T12:00:15;7.53;;;3.97;;
77432;SDS011;66752;48.576;8.876;2023-05-29T12:02:42;7.60;;;3.63;;
77432;SDS011;66752;48.576;8.876;2023-05-29T12:05:08;6.63;;;3.58;;
77432;SDS011;66752;48.576;8.876;2023-05-29T12:07:35;9.45;;;3.35;;
77432;SDS011;66752;48.576;8.876;2023-05-29T12:10:14;6.63;;;3.65;;
77432;SDS011;66752;48.576;8.876;2023-05-29T12:12:41;10.60;;;3.90;;
77432;SDS011;66752;48.576;8.876;2023-05-29T12:15:07;6.95;;;3.50;;
77432;SDS011;66752;48.576;8.876;2023-05-29T12:17:36;8.73;;;3.60;;
77432;SDS011;66752;48.576;8.876;2023-05-29T12:20:03;7.47;;;3.65;;
77432;SDS011;66752;48.576;8.876;2023-05-29T12:22:38;8.07;;;3.47;;
77432;SDS011;66752;48.576;8.876;2023-05-29T12:27:32;6.47;;;3.20;;
77432;SDS011;66752;48.576;8.876;2023-05-29T12:30:02;6.35;;;3.28;;
77432;SDS011;66752;48.576;8.876;2023-05-29T12:32:36;7.05;;;3.72;;
77432;SDS011;66752;48.576;8.876;2023-05-29T12:37:42;8.13;;;3.05;;
77432;SDS011;66752;48.576;8.876;2023-05-29T12:40:15;9.27;;;3.78;;
77432;SDS011;66752;48.576;8.876;2023-05-29T12:42:42;6.50;;;2.88;;
77432;SDS011;66752;48.576;8.876;2023-05-29T12:45:08;7.88;;;3.13;;
77432;SDS011;66752;48.576;8.876;2023-05-29T12:47:35;6.60;;;3.42;;
77432;SDS011;66752;48.576;8.876;2023-05-29T12:52:55;6.90;;;3.67;;
77432;SDS011;66752;48.576;8.876;2023-05-29T12:55:21;8.15;;;3.40;;
77432;SDS011;66752;48.576;8.876;2023-05-29T13:00:13;7.60;;;3.38;;
77432;SDS011;66752;48.576;8.876;2023-05-29T13:05:06;6.03;;;2.75;;
77432;SDS011;66752;48.576;8.876;2023-05-29T13:07:32;6.85;;;3.03;;
77432;SDS011;66752;48.576;8.876;2023-05-29T13:10:01;7.03;;;3.03;;
77432;SDS011;66752;48.576;8.876;2023-05-29T13:12:27;8.45;;;4.85;;
77432;SDS011;66752;48.576;8.876;2023-05-29T13:17:22;6.72;;;3.13;;
77432;SDS011;66752;48.576;8.876;2023-05-29T13:22:14;6.32;;;3.50;;
77432;SDS011;66752;48.576;8.876;2023-05-29T13:24:40;5.65;;;2.90;;
77432;SDS011;66752;48.576;8.876;2023-05-29T13:27:06;6.68;;;3.30;;
77432;SDS011;66752;48.576;8.876;2023-05-29T13:29:32;5.50;;;2.55;;
77432;SDS011;66752;48.576;8.876;2023-05-29T13:31:58;7.07;;;2.47;;
77432;SDS011;66752;48.576;8.876;2023-05-29T13:36:54;7.90;;;3.20;;
77432;SDS011;66752;48.576;8.876;2023-05-29T13:39:20;7.15;;;3.33;;
77432;SDS011;66752;48.576;8.876;2023-05-29T13:41:46;6.85;;;3.10;;
77432;SDS011;66752;48.576;8.876;2023-05-29T13:44:12;7.82;;;3.53;;
77432;SDS011;66752;48.576;8.876;2023-05-29T13:49:04;5.55;;;2.70;;
77432;SDS011;66752;48.576;8.876;2023-05-29T13:51:32;6.03;;;3.22;;
77432;SDS011;66752;48.576;8.876;2023-05-29T13:56:24;6.90;;;2.72;;
77432;SDS011;66752;48.576;8.876;2023-05-29T13:58:51;6.15;;;3.13;;
77432;SDS011;66752;48.576;8.876;2023-05-29T14:03:44;7.32;;;3.30;;
77432;SDS011;66752;48.576;8.876;2023-05-29T14:08:36;7.40;;;2.75;;
77432;SDS011;66752;48.576;8.876;2023-05-29T14:13:28;5.97;;;3.08;;
77432;SDS011;66752;48.576;8.876;2023-05-29T14:15:54;7.30;;;3.15;;
77432;SDS011;66752;48.576;8.876;2023-05-29T14:18:22;7.63;;;3.13;;
77432;SDS011;66752;48.576;8.876;2023-05-29T14:23:14;5.50;;;2.65;;
77432;SDS011;66752;48.576;8.876;2023-05-29T14:25:43;6.53;;;3.33;;
77432;SDS011;66752;48.576;8.876;2023-05-29T14:28:09;5.78;;;2.92;;
77432;SDS011;66752;48.576;8.876;2023-05-29T14:30:36;5.53;;;3.05;;
77432;SDS011;66752;48.576;8.876;2023-05-29T14:33:02;7.32;;;2.97;;
77432;SDS011;66752;48.576;8.876;2023-05-29T14:37:54;7.35;;;3.08;;
77432;SDS011;66752;48.576;8.876;2023-05-29T14:42:46;6.57;;;3.58;;
77432;SDS011;66752;48.576;8.876;2023-05-29T14:45:12;8.07;;;3.17;;
77432;SDS011;66752;48.576;8.876;2023-05-29T14:50:04;7.35;;;3.25;;
77432;SDS011;66752;48.576;8.876;2023-05-29T14:52:30;6.88;;;3.25;;
77432;SDS011;66752;48.576;8.876;2023-05-29T14:54:56;6.70;;;3.22;;
77432;SDS011;66752;48.576;8.876;2023-05-29T14:59:48;9.35;;;4.55;;
77432;SDS011;66752;48.576;8.876;2023-05-29T15:02:15;5.47;;;2.70;;
77432;SDS011;66752;48.576;8.876;2023-05-29T15:04:41;6.25;;;3.22;;
77432;SDS011;66752;48.576;8.876;2023-05-29T15:07:07;6.57;;;3.25;;
77432;SDS011;66752;48.576;8.876;2023-05-29T15:11:59;5.85;;;2.97;;
77432;SDS011;66752;48.576;8.876;2023-05-29T15:14:25;8.05;;;3.20;;
77432;SDS011;66752;48.576;8.876;2023-05-29T15:16:51;7.28;;;3.38;;
77432;SDS011;66752;48.576;8.876;2023-05-29T15:19:17;7.88;;;3.25;;
77432;SDS011;66752;48.576;8.876;2023-05-29T15:21:42;6.85;;;3.42;;
77432;SDS011;66752;48.576;8.876;2023-05-29T15:24:08;7.63;;;3.90;;
77432;SDS011;66752;48.576;8.876;2023-05-29T15:26:34;5.57;;;2.78;;
77432;SDS011;66752;48.576;8.876;2023-05-29T15:29:01;6.63;;;3.22;;
77432;SDS011;66752;48.576;8.876;2023-05-29T15:31:27;6.25;;;3.35;;
77432;SDS011;66752;48.576;8.876;2023-05-29T15:36:19;7.00;;;3.20;;
77432;SDS011;66752;48.576;8.876;2023-05-29T15:38:46;7.05;;;3.25;;
77432;SDS011;66752;48.576;8.876;2023-05-29T15:41:12;6.00;;;3.03;;
77432;SDS011;66752;48.576;8.876;2023-05-29T15:43:38;6.65;;;3.40;;
77432;SDS011;66752;48.576;8.876;2023-05-29T15:46:04;7.38;;;3.17;;
77432;SDS011;66752;48.576;8.876;2023-05-29T15:50:55;6.03;;;3.33;;
77432;SDS011;66752;48.576;8.876;2023-05-29T15:53:21;6.85;;;3.75;;
77432;SDS011;66752;48.576;8.876;2023-05-29T15:58:13;7.82;;;2.95;;
77432;SDS011;66752;48.576;8.876;2023-05-29T16:00:39;6.43;;;3.30;;
77432;SDS011;66752;48.576;8.876;2023-05-29T16:03:05;7.20;;;2.63;;
77432;SDS011;66752;48.576;8.876;2023-05-29T16:05:31;6.88;;;3.20;;
77432;SDS011;66752;48.576;8.876;2023-05-29T16:07:57;5.72;;;3.22;;
77432;SDS011;66752;48.576;8.876;2023-05-29T16:12:50;6.75;;;2.78;;
77432;SDS011;66752;48.576;8.876;2023-05-29T16:15:16;6.55;;;3.20;;
77432;SDS011;66752;48.576;8.876;2023-05-29T16:17:43;7.15;;;2.90;;
77432;SDS011;66752;48.576;8.876;2023-05-29T16:22:35;8.60;;;3.08;;
77432;SDS011;66752;48.576;8.876;2023-05-29T16:25:02;7.45;;;2.92;;
77432;SDS011;66752;48.576;8.876;2023-05-29T16:27:28;6.22;;;2.90;;
77432;SDS011;66752;48.576;8.876;2023-05-29T16:29:54;8.82;;;3.45;;
77432;SDS011;66752;48.576;8.876;2023-05-29T16:34:46;11.07;;;3.28;;
77432;SDS011;66752;48.576;8.876;2023-05-29T16:37:12;7.40;;;3.03;;
77432;SDS011;66752;48.576;8.876;2023-05-29T16:39:38;8.82;;;3.63;;
77432;SDS011;66752;48.576;8.876;2023-05-29T16:42:05;5.63;;;2.88;;
77432;SDS011;66752;48.576;8.876;2023-05-29T16:44:31;6.22;;;2.90;;
77432;SDS011;66752;48.576;8.876;2023-05-29T16:46:58;9.05;;;3.20;;